sensor_id;sensor_type;location;lat;lon;timestamp;P1;durP1;ratioP1;P2;durP2;ratioP2
75218;SDS011;63801;49.414;19.474;2023-09-08T00:00:49;14.93;;;9.93;;
75218;SDS011;63801;49.414;19.474;2023-09-08T00:02:50;17.23;;;10.05;;
75218;SDS011;63801;49.414;19.474;2023-09-08T00:04:51;16.50;;;10.65;;
75218;SDS011;63801;49.414;19.474;2023-09-08T00:06:51;14.70;;;10.15;;
75218;SDS011;63801;49.414;19.474;2023-09-08T00:08:52;16.50;;;11.05;;
75218;SDS011;63801;49.414;19.474;2023-09-08T00:10:53;15.75;;;10.75;;
75218;SDS011;63801;49.414;19.474;2023-09-08T00:12:54;18.75;;;10.32;;
75218;SDS011;63801;49.414;19.474;2023-09-08T00:14:54;16.63;;;10.23;;
75218;SDS011;63801;49.414;19.474;2023-09-08T00:16:55;16.95;;;9.95;;
75218;SDS011;63801;49.414;19.474;2023-09-08T00:18:56;21.38;;;10.63;;
75218;SDS011;63801;49.414;19.474;2023-09-08T00:21:00;18.05;;;10.57;;
75218;SDS011;63801;49.414;19.474;2023-09-08T00:23:01;15.45;;;10.27;;
75218;SDS011;63801;49.414;19.474;2023-09-08T00:25:02;16.58;;;10.05;;
75218;SDS011;63801;49.414;19.474;2023-09-08T00:27:04;19.00;;;11.73;;
75218;SDS011;63801;49.414;19.474;2023-09-08T00:29:04;21.88;;;13.68;;
75218;SDS011;63801;49.414;19.474;2023-09-08T00:31:05;20.40;;;12.88;;
75218;SDS011;63801;49.414;19.474;2023-09-08T00:33:05;16.77;;;10.43;;
75218;SDS011;63801;49.414;19.474;2023-09-08T00:35:10;18.00;;;10.70;;
75218;SDS011;63801;49.414;19.474;2023-09-08T00:37:11;18.77;;;10.60;;
75218;SDS011;63801;49.414;19.474;2023-09-08T00:39:11;18.67;;;11.88;;
75218;SDS011;63801;49.414;19.474;2023-09-08T00:41:12;18.00;;;11.50;;
75218;SDS011;63801;49.414;19.474;2023-09-08T00:43:12;17.70;;;11.80;;
75218;SDS011;63801;49.414;19.474;2023-09-08T00:45:12;20.70;;;12.10;;
75218;SDS011;63801;49.414;19.474;2023-09-08T00:47:13;21.55;;;12.75;;
75218;SDS011;63801;49.414;19.474;2023-09-08T00:49:13;25.05;;;13.88;;
75218;SDS011;63801;49.414;19.474;2023-09-08T00:51:13;22.20;;;13.15;;
75218;SDS011;63801;49.414;19.474;2023-09-08T00:53:14;26.25;;;14.18;;
75218;SDS011;63801;49.414;19.474;2023-09-08T00:55:15;22.00;;;13.60;;
75218;SDS011;63801;49.414;19.474;2023-09-08T00:57:16;23.27;;;15.02;;
75218;SDS011;63801;49.414;19.474;2023-09-08T00:59:17;25.33;;;15.32;;
75218;SDS011;63801;49.414;19.474;2023-09-08T01:01:17;28.60;;;15.88;;
75218;SDS011;63801;49.414;19.474;2023-09-08T01:03:17;23.05;;;15.25;;
75218;SDS011;63801;49.414;19.474;2023-09-08T01:05:18;24.42;;;15.10;;
75218;SDS011;63801;49.414;19.474;2023-09-08T01:07:19;22.48;;;14.27;;
75218;SDS011;63801;49.414;19.474;2023-09-08T01:09:21;20.95;;;14.13;;
75218;SDS011;63801;49.414;19.474;2023-09-08T01:11:23;22.23;;;12.43;;
75218;SDS011;63801;49.414;19.474;2023-09-08T01:13:23;19.83;;;11.93;;
75218;SDS011;63801;49.414;19.474;2023-09-08T01:15:23;21.08;;;12.70;;
75218;SDS011;63801;49.414;19.474;2023-09-08T01:17:25;21.15;;;13.07;;
75218;SDS011;63801;49.414;19.474;2023-09-08T01:19:25;23.13;;;13.45;;
75218;SDS011;63801;49.414;19.474;2023-09-08T01:26:10;16.27;;;10.55;;
75218;SDS011;63801;49.414;19.474;2023-09-08T01:28:16;19.17;;;11.50;;
75218;SDS011;63801;49.414;19.474;2023-09-08T01:30:19;18.65;;;12.23;;
75218;SDS011;63801;49.414;19.474;2023-09-08T01:32:21;19.27;;;12.38;;
75218;SDS011;63801;49.414;19.474;2023-09-08T01:34:22;20.00;;;12.57;;
75218;SDS011;63801;49.414;19.474;2023-09-08T01:36:23;18.27;;;11.38;;
75218;SDS011;63801;49.414;19.474;2023-09-08T01:38:24;22.73;;;12.15;;
75218;SDS011;63801;49.414;19.474;2023-09-08T01:40:25;24.88;;;13.50;;
75218;SDS011;63801;49.414;19.474;2023-09-08T01:42:25;23.98;;;14.75;;
75218;SDS011;63801;49.414;19.474;2023-09-08T01:44:25;21.05;;;13.40;;
75218;SDS011;63801;49.414;19.474;2023-09-08T01:46:25;22.08;;;13.88;;
75218;SDS011;63801;49.414;19.474;2023-09-08T01:48:26;22.13;;;14.30;;
75218;SDS011;63801;49.414;19.474;2023-09-08T01:50:26;22.98;;;15.32;;
75218;SDS011;63801;49.414;19.474;2023-09-08T01:52:26;25.92;;;15.93;;
75218;SDS011;63801;49.414;19.474;2023-09-08T01:54:27;20.67;;;13.93;;
75218;SDS011;63801;49.414;19.474;2023-09-08T01:56:27;22.15;;;13.60;;
75218;SDS011;63801;49.414;19.474;2023-09-08T01:58:27;23.33;;;14.18;;
75218;SDS011;63801;49.414;19.474;2023-09-08T02:00:29;23.13;;;10.55;;
75218;SDS011;63801;49.414;19.474;2023-09-08T02:02:30;20.77;;;12.02;;
75218;SDS011;63801;49.414;19.474;2023-09-08T02:04:30;20.98;;;13.40;;
75218;SDS011;63801;49.414;19.474;2023-09-08T02:06:30;23.10;;;14.05;;
75218;SDS011;63801;49.414;19.474;2023-09-08T02:08:31;22.48;;;12.75;;
75218;SDS011;63801;49.414;19.474;2023-09-08T02:10:31;20.65;;;12.48;;
75218;SDS011;63801;49.414;19.474;2023-09-08T02:12:32;21.42;;;11.88;;
75218;SDS011;63801;49.414;19.474;2023-09-08T02:14:32;17.85;;;11.68;;
75218;SDS011;63801;49.414;19.474;2023-09-08T02:16:32;18.05;;;12.18;;
75218;SDS011;63801;49.414;19.474;2023-09-08T02:18:32;21.38;;;12.57;;
75218;SDS011;63801;49.414;19.474;2023-09-08T02:20:33;20.38;;;12.13;;
75218;SDS011;63801;49.414;19.474;2023-09-08T02:22:33;17.13;;;11.00;;
75218;SDS011;63801;49.414;19.474;2023-09-08T02:24:33;14.85;;;10.75;;
75218;SDS011;63801;49.414;19.474;2023-09-08T02:26:34;18.85;;;12.23;;
75218;SDS011;63801;49.414;19.474;2023-09-08T02:28:34;21.00;;;12.73;;
75218;SDS011;63801;49.414;19.474;2023-09-08T02:30:35;19.58;;;11.63;;
75218;SDS011;63801;49.414;19.474;2023-09-08T02:32:35;16.42;;;11.35;;
75218;SDS011;63801;49.414;19.474;2023-09-08T02:34:35;20.02;;;12.93;;
75218;SDS011;63801;49.414;19.474;2023-09-08T02:36:39;18.15;;;11.93;;
75218;SDS011;63801;49.414;19.474;2023-09-08T02:38:40;23.77;;;13.68;;
75218;SDS011;63801;49.414;19.474;2023-09-08T02:40:40;24.20;;;15.05;;
75218;SDS011;63801;49.414;19.474;2023-09-08T02:42:40;23.75;;;15.40;;
75218;SDS011;63801;49.414;19.474;2023-09-08T02:44:41;23.73;;;13.93;;
75218;SDS011;63801;49.414;19.474;2023-09-08T02:46:41;19.67;;;14.02;;
75218;SDS011;63801;49.414;19.474;2023-09-08T02:48:42;22.80;;;14.95;;
75218;SDS011;63801;49.414;19.474;2023-09-08T02:50:43;24.27;;;14.93;;
75218;SDS011;63801;49.414;19.474;2023-09-08T02:52:43;22.10;;;15.40;;
75218;SDS011;63801;49.414;19.474;2023-09-08T02:54:44;24.85;;;14.75;;
75218;SDS011;63801;49.414;19.474;2023-09-08T02:56:45;23.40;;;13.82;;
75218;SDS011;63801;49.414;19.474;2023-09-08T02:58:45;19.17;;;12.65;;
75218;SDS011;63801;49.414;19.474;2023-09-08T03:00:45;19.35;;;11.63;;
75218;SDS011;63801;49.414;19.474;2023-09-08T03:02:46;22.30;;;11.88;;
75218;SDS011;63801;49.414;19.474;2023-09-08T03:04:46;18.13;;;11.65;;
75218;SDS011;63801;49.414;19.474;2023-09-08T03:06:46;19.95;;;12.35;;
75218;SDS011;63801;49.414;19.474;2023-09-08T03:08:47;20.50;;;11.15;;
75218;SDS011;63801;49.414;19.474;2023-09-08T03:10:47;22.42;;;13.70;;
75218;SDS011;63801;49.414;19.474;2023-09-08T03:12:48;19.48;;;12.38;;
75218;SDS011;63801;49.414;19.474;2023-09-08T03:14:48;20.70;;;12.40;;
75218;SDS011;63801;49.414;19.474;2023-09-08T03:16:49;19.75;;;10.13;;
75218;SDS011;63801;49.414;19.474;2023-09-08T03:18:49;16.65;;;10.00;;
75218;SDS011;63801;49.414;19.474;2023-09-08T03:20:50;15.70;;;10.18;;
75218;SDS011;63801;49.414;19.474;2023-09-08T03:22:51;18.58;;;10.70;;
75218;SDS011;63801;49.414;19.474;2023-09-08T03:24:52;20.42;;;10.65;;
75218;SDS011;63801;49.414;19.474;2023-09-08T03:26:53;18.90;;;12.38;;
75218;SDS011;63801;49.414;19.474;2023-09-08T03:28:53;21.50;;;10.68;;
75218;SDS011;63801;49.414;19.474;2023-09-08T03:30:53;19.67;;;12.68;;
75218;SDS011;63801;49.414;19.474;2023-09-08T03:32:54;23.83;;;12.90;;
75218;SDS011;63801;49.414;19.474;2023-09-08T03:34:54;19.88;;;12.20;;
75218;SDS011;63801;49.414;19.474;2023-09-08T03:36:54;20.52;;;12.73;;
75218;SDS011;63801;49.414;19.474;2023-09-08T03:38:55;23.15;;;13.02;;
75218;SDS011;63801;49.414;19.474;2023-09-08T03:42:58;79.95;;;14.52;;
75218;SDS011;63801;49.414;19.474;2023-09-08T03:44:58;136.95;;;16.83;;
75218;SDS011;63801;49.414;19.474;2023-09-08T03:46:58;112.28;;;17.92;;
75218;SDS011;63801;49.414;19.474;2023-09-08T03:48:59;72.50;;;16.23;;
75218;SDS011;63801;49.414;19.474;2023-09-08T03:51:00;57.83;;;16.42;;
75218;SDS011;63801;49.414;19.474;2023-09-08T03:53:01;85.32;;;17.30;;
75218;SDS011;63801;49.414;19.474;2023-09-08T03:55:02;116.43;;;18.13;;
75218;SDS011;63801;49.414;19.474;2023-09-08T03:57:02;21.85;;;12.50;;
75218;SDS011;63801;49.414;19.474;2023-09-08T03:59:03;25.77;;;13.93;;
75218;SDS011;63801;49.414;19.474;2023-09-08T04:01:03;26.65;;;13.45;;
75218;SDS011;63801;49.414;19.474;2023-09-08T04:03:04;41.78;;;14.73;;
75218;SDS011;63801;49.414;19.474;2023-09-08T04:05:04;91.82;;;16.15;;
75218;SDS011;63801;49.414;19.474;2023-09-08T04:07:05;42.60;;;15.30;;
75218;SDS011;63801;49.414;19.474;2023-09-08T04:09:05;99.15;;;16.60;;
75218;SDS011;63801;49.414;19.474;2023-09-08T04:11:06;91.20;;;17.13;;
75218;SDS011;63801;49.414;19.474;2023-09-08T04:13:06;394.48;;;25.45;;
75218;SDS011;63801;49.414;19.474;2023-09-08T04:15:06;151.25;;;19.77;;
75218;SDS011;63801;49.414;19.474;2023-09-08T04:17:07;331.77;;;24.40;;
75218;SDS011;63801;49.414;19.474;2023-09-08T04:19:08;303.80;;;23.63;;
75218;SDS011;63801;49.414;19.474;2023-09-08T04:21:08;81.07;;;17.42;;
75218;SDS011;63801;49.414;19.474;2023-09-08T04:23:08;149.48;;;18.52;;
75218;SDS011;63801;49.414;19.474;2023-09-08T04:25:09;171.07;;;19.15;;
75218;SDS011;63801;49.414;19.474;2023-09-08T04:27:10;112.10;;;17.75;;
75218;SDS011;63801;49.414;19.474;2023-09-08T04:29:11;163.32;;;17.77;;
75218;SDS011;63801;49.414;19.474;2023-09-08T04:31:11;167.70;;;18.13;;
75218;SDS011;63801;49.414;19.474;2023-09-08T04:33:11;145.85;;;16.25;;
75218;SDS011;63801;49.414;19.474;2023-09-08T04:35:12;151.25;;;18.20;;
75218;SDS011;63801;49.414;19.474;2023-09-08T04:37:12;155.30;;;19.20;;
75218;SDS011;63801;49.414;19.474;2023-09-08T04:39:14;181.15;;;20.67;;
75218;SDS011;63801;49.414;19.474;2023-09-08T04:41:15;179.63;;;20.48;;
75218;SDS011;63801;49.414;19.474;2023-09-08T04:43:15;222.25;;;21.88;;
75218;SDS011;63801;49.414;19.474;2023-09-08T04:45:16;194.82;;;20.95;;
75218;SDS011;63801;49.414;19.474;2023-09-08T04:47:16;291.67;;;25.00;;
75218;SDS011;63801;49.414;19.474;2023-09-08T04:49:16;235.35;;;23.35;;
75218;SDS011;63801;49.414;19.474;2023-09-08T04:51:17;187.98;;;22.42;;
75218;SDS011;63801;49.414;19.474;2023-09-08T04:53:17;227.77;;;23.88;;
75218;SDS011;63801;49.414;19.474;2023-09-08T04:55:18;230.35;;;23.45;;
75218;SDS011;63801;49.414;19.474;2023-09-08T04:57:19;78.95;;;18.83;;
75218;SDS011;63801;49.414;19.474;2023-09-08T04:59:20;179.00;;;21.02;;
75218;SDS011;63801;49.414;19.474;2023-09-08T05:01:20;207.40;;;21.25;;
75218;SDS011;63801;49.414;19.474;2023-09-08T05:03:21;216.05;;;21.85;;
75218;SDS011;63801;49.414;19.474;2023-09-08T05:05:21;101.43;;;18.63;;
75218;SDS011;63801;49.414;19.474;2023-09-08T05:07:22;178.43;;;20.42;;
75218;SDS011;63801;49.414;19.474;2023-09-08T05:09:22;229.88;;;25.23;;
75218;SDS011;63801;49.414;19.474;2023-09-08T05:11:22;177.02;;;22.40;;
75218;SDS011;63801;49.414;19.474;2023-09-08T05:13:23;208.20;;;21.65;;
75218;SDS011;63801;49.414;19.474;2023-09-08T05:15:26;287.67;;;24.00;;
75218;SDS011;63801;49.414;19.474;2023-09-08T05:17:27;113.88;;;23.30;;
75218;SDS011;63801;49.414;19.474;2023-09-08T05:19:27;97.90;;;20.60;;
75218;SDS011;63801;49.414;19.474;2023-09-08T05:21:28;104.13;;;20.30;;
75218;SDS011;63801;49.414;19.474;2023-09-08T05:23:28;71.00;;;18.67;;
75218;SDS011;63801;49.414;19.474;2023-09-08T05:25:28;46.72;;;17.85;;
75218;SDS011;63801;49.414;19.474;2023-09-08T05:27:28;85.00;;;15.68;;
75218;SDS011;63801;49.414;19.474;2023-09-08T05:29:29;68.88;;;12.77;;
75218;SDS011;63801;49.414;19.474;2023-09-08T05:31:29;48.75;;;12.07;;
75218;SDS011;63801;49.414;19.474;2023-09-08T05:33:29;20.45;;;9.48;;
75218;SDS011;63801;49.414;19.474;2023-09-08T05:35:30;20.20;;;9.43;;
75218;SDS011;63801;49.414;19.474;2023-09-08T05:37:30;19.08;;;8.80;;
75218;SDS011;63801;49.414;19.474;2023-09-08T05:39:30;16.65;;;8.32;;
75218;SDS011;63801;49.414;19.474;2023-09-08T05:41:31;13.73;;;6.82;;
75218;SDS011;63801;49.414;19.474;2023-09-08T05:43:32;12.05;;;7.20;;
75218;SDS011;63801;49.414;19.474;2023-09-08T05:45:32;8.05;;;5.80;;
75218;SDS011;63801;49.414;19.474;2023-09-08T05:47:33;8.05;;;5.90;;
75218;SDS011;63801;49.414;19.474;2023-09-08T05:49:33;9.52;;;6.18;;
75218;SDS011;63801;49.414;19.474;2023-09-08T05:51:33;17.73;;;7.57;;
75218;SDS011;63801;49.414;19.474;2023-09-08T05:53:34;16.38;;;7.15;;
75218;SDS011;63801;49.414;19.474;2023-09-08T05:55:35;13.82;;;6.05;;
75218;SDS011;63801;49.414;19.474;2023-09-08T05:57:35;13.93;;;6.40;;
75218;SDS011;63801;49.414;19.474;2023-09-08T05:59:36;26.85;;;6.15;;
75218;SDS011;63801;49.414;19.474;2023-09-08T06:01:37;30.67;;;6.13;;
75218;SDS011;63801;49.414;19.474;2023-09-08T06:03:37;27.77;;;5.55;;
75218;SDS011;63801;49.414;19.474;2023-09-08T06:05:37;57.88;;;6.40;;
75218;SDS011;63801;49.414;19.474;2023-09-08T06:07:38;50.60;;;6.72;;
75218;SDS011;63801;49.414;19.474;2023-09-08T06:09:38;16.42;;;6.60;;
75218;SDS011;63801;49.414;19.474;2023-09-08T06:11:39;25.45;;;6.70;;
75218;SDS011;63801;49.414;19.474;2023-09-08T06:13:39;34.20;;;6.38;;
75218;SDS011;63801;49.414;19.474;2023-09-08T06:15:39;30.88;;;8.43;;
75218;SDS011;63801;49.414;19.474;2023-09-08T06:17:40;43.88;;;9.73;;
75218;SDS011;63801;49.414;19.474;2023-09-08T06:19:40;67.35;;;11.35;;
75218;SDS011;63801;49.414;19.474;2023-09-08T06:21:40;83.07;;;12.43;;
75218;SDS011;63801;49.414;19.474;2023-09-08T06:23:40;55.40;;;12.10;;
75218;SDS011;63801;49.414;19.474;2023-09-08T06:25:41;64.75;;;14.95;;
75218;SDS011;63801;49.414;19.474;2023-09-08T06:27:41;72.55;;;13.93;;
75218;SDS011;63801;49.414;19.474;2023-09-08T06:29:42;67.80;;;11.45;;
75218;SDS011;63801;49.414;19.474;2023-09-08T06:31:43;52.58;;;10.55;;
75218;SDS011;63801;49.414;19.474;2023-09-08T06:33:44;73.70;;;10.23;;
75218;SDS011;63801;49.414;19.474;2023-09-08T06:35:45;89.38;;;10.23;;
75218;SDS011;63801;49.414;19.474;2023-09-08T06:37:46;61.00;;;8.70;;
75218;SDS011;63801;49.414;19.474;2023-09-08T06:39:46;27.52;;;8.25;;
75218;SDS011;63801;49.414;19.474;2023-09-08T06:41:47;35.65;;;8.52;;
75218;SDS011;63801;49.414;19.474;2023-09-08T06:43:47;32.00;;;8.90;;
75218;SDS011;63801;49.414;19.474;2023-09-08T06:45:48;28.85;;;8.15;;
75218;SDS011;63801;49.414;19.474;2023-09-08T06:47:49;30.67;;;8.70;;
75218;SDS011;63801;49.414;19.474;2023-09-08T06:49:50;39.08;;;9.68;;
75218;SDS011;63801;49.414;19.474;2023-09-08T06:51:51;37.25;;;8.43;;
75218;SDS011;63801;49.414;19.474;2023-09-08T06:53:57;44.35;;;8.23;;
75218;SDS011;63801;49.414;19.474;2023-09-08T06:55:59;19.35;;;8.18;;
75218;SDS011;63801;49.414;19.474;2023-09-08T06:58:00;14.70;;;7.07;;
75218;SDS011;63801;49.414;19.474;2023-09-08T07:00:00;10.43;;;6.60;;
75218;SDS011;63801;49.414;19.474;2023-09-08T07:02:01;10.07;;;6.82;;
75218;SDS011;63801;49.414;19.474;2023-09-08T07:04:01;10.43;;;6.82;;
75218;SDS011;63801;49.414;19.474;2023-09-08T07:06:02;10.40;;;7.57;;
75218;SDS011;63801;49.414;19.474;2023-09-08T07:08:03;65.47;;;8.85;;
75218;SDS011;63801;49.414;19.474;2023-09-08T07:10:06;14.52;;;7.82;;
75218;SDS011;63801;49.414;19.474;2023-09-08T07:12:07;42.13;;;8.48;;
75218;SDS011;63801;49.414;19.474;2023-09-08T07:14:07;40.60;;;9.48;;
75218;SDS011;63801;49.414;19.474;2023-09-08T07:16:08;44.40;;;9.88;;
75218;SDS011;63801;49.414;19.474;2023-09-08T07:18:08;16.75;;;9.95;;
75218;SDS011;63801;49.414;19.474;2023-09-08T07:20:08;19.45;;;9.77;;
75218;SDS011;63801;49.414;19.474;2023-09-08T07:22:09;24.02;;;10.32;;
75218;SDS011;63801;49.414;19.474;2023-09-08T07:24:10;22.08;;;12.73;;
75218;SDS011;63801;49.414;19.474;2023-09-08T07:26:10;22.58;;;11.30;;
75218;SDS011;63801;49.414;19.474;2023-09-08T07:28:10;32.45;;;12.80;;
75218;SDS011;63801;49.414;19.474;2023-09-08T07:30:11;25.35;;;12.40;;
75218;SDS011;63801;49.414;19.474;2023-09-08T07:32:12;25.50;;;12.57;;
75218;SDS011;63801;49.414;19.474;2023-09-08T07:34:12;20.17;;;12.10;;
75218;SDS011;63801;49.414;19.474;2023-09-08T07:36:13;25.08;;;12.48;;
75218;SDS011;63801;49.414;19.474;2023-09-08T07:38:13;17.45;;;11.73;;
75218;SDS011;63801;49.414;19.474;2023-09-08T07:40:14;18.92;;;11.80;;
75218;SDS011;63801;49.414;19.474;2023-09-08T07:42:14;22.58;;;11.98;;
75218;SDS011;63801;49.414;19.474;2023-09-08T07:44:14;29.33;;;12.23;;
75218;SDS011;63801;49.414;19.474;2023-09-08T07:46:15;17.98;;;12.32;;
75218;SDS011;63801;49.414;19.474;2023-09-08T07:48:15;19.80;;;13.55;;
75218;SDS011;63801;49.414;19.474;2023-09-08T07:50:19;21.88;;;13.23;;
75218;SDS011;63801;49.414;19.474;2023-09-08T07:52:25;20.92;;;13.00;;
75218;SDS011;63801;49.414;19.474;2023-09-08T07:54:25;23.00;;;12.63;;
75218;SDS011;63801;49.414;19.474;2023-09-08T07:56:25;20.77;;;13.13;;
75218;SDS011;63801;49.414;19.474;2023-09-08T07:58:26;24.45;;;12.57;;
75218;SDS011;63801;49.414;19.474;2023-09-08T08:00:26;22.50;;;12.85;;
75218;SDS011;63801;49.414;19.474;2023-09-08T08:02:27;21.52;;;11.93;;
75218;SDS011;63801;49.414;19.474;2023-09-08T08:04:27;23.13;;;13.02;;
75218;SDS011;63801;49.414;19.474;2023-09-08T08:06:28;19.35;;;12.20;;
75218;SDS011;63801;49.414;19.474;2023-09-08T08:08:28;17.40;;;12.13;;
75218;SDS011;63801;49.414;19.474;2023-09-08T08:10:28;21.95;;;12.77;;
75218;SDS011;63801;49.414;19.474;2023-09-08T08:12:30;21.85;;;11.90;;
75218;SDS011;63801;49.414;19.474;2023-09-08T08:14:30;16.75;;;11.85;;
75218;SDS011;63801;49.414;19.474;2023-09-08T08:16:30;18.50;;;11.88;;
75218;SDS011;63801;49.414;19.474;2023-09-08T08:18:31;18.75;;;11.80;;
75218;SDS011;63801;49.414;19.474;2023-09-08T08:20:31;29.05;;;11.45;;
75218;SDS011;63801;49.414;19.474;2023-09-08T08:22:35;17.50;;;11.45;;
75218;SDS011;63801;49.414;19.474;2023-09-08T08:24:36;19.27;;;12.55;;
75218;SDS011;63801;49.414;19.474;2023-09-08T08:26:37;18.42;;;13.20;;
75218;SDS011;63801;49.414;19.474;2023-09-08T08:28:37;17.17;;;12.30;;
75218;SDS011;63801;49.414;19.474;2023-09-08T08:30:37;18.50;;;12.52;;
75218;SDS011;63801;49.414;19.474;2023-09-08T08:32:38;18.35;;;12.35;;
75218;SDS011;63801;49.414;19.474;2023-09-08T08:34:38;15.55;;;10.85;;
75218;SDS011;63801;49.414;19.474;2023-09-08T08:36:38;16.80;;;11.70;;
75218;SDS011;63801;49.414;19.474;2023-09-08T08:38:39;19.15;;;12.32;;
75218;SDS011;63801;49.414;19.474;2023-09-08T08:40:39;15.50;;;11.65;;
75218;SDS011;63801;49.414;19.474;2023-09-08T08:42:40;18.67;;;11.88;;
75218;SDS011;63801;49.414;19.474;2023-09-08T08:44:42;17.00;;;12.73;;
75218;SDS011;63801;49.414;19.474;2023-09-08T08:46:43;16.55;;;11.05;;
75218;SDS011;63801;49.414;19.474;2023-09-08T08:48:46;16.02;;;11.50;;
75218;SDS011;63801;49.414;19.474;2023-09-08T08:50:47;14.82;;;11.07;;
75218;SDS011;63801;49.414;19.474;2023-09-08T08:52:48;13.80;;;9.55;;
75218;SDS011;63801;49.414;19.474;2023-09-08T08:54:48;15.10;;;9.57;;
75218;SDS011;63801;49.414;19.474;2023-09-08T08:56:49;15.77;;;9.15;;
75218;SDS011;63801;49.414;19.474;2023-09-08T08:58:49;12.85;;;9.07;;
75218;SDS011;63801;49.414;19.474;2023-09-08T09:00:51;14.77;;;9.38;;
75218;SDS011;63801;49.414;19.474;2023-09-08T09:02:53;13.15;;;9.45;;
75218;SDS011;63801;49.414;19.474;2023-09-08T09:04:54;13.35;;;9.43;;
75218;SDS011;63801;49.414;19.474;2023-09-08T09:06:54;14.35;;;8.95;;
75218;SDS011;63801;49.414;19.474;2023-09-08T09:08:55;13.02;;;8.98;;
75218;SDS011;63801;49.414;19.474;2023-09-08T09:10:56;15.30;;;9.07;;
75218;SDS011;63801;49.414;19.474;2023-09-08T09:12:56;13.32;;;8.45;;
75218;SDS011;63801;49.414;19.474;2023-09-08T09:14:58;14.35;;;8.75;;
75218;SDS011;63801;49.414;19.474;2023-09-08T09:16:58;14.73;;;8.68;;
75218;SDS011;63801;49.414;19.474;2023-09-08T09:19:00;12.57;;;8.60;;
75218;SDS011;63801;49.414;19.474;2023-09-08T09:21:00;13.27;;;8.13;;
75218;SDS011;63801;49.414;19.474;2023-09-08T09:23:01;17.77;;;8.38;;
75218;SDS011;63801;49.414;19.474;2023-09-08T09:25:02;12.98;;;7.88;;
75218;SDS011;63801;49.414;19.474;2023-09-08T09:27:05;10.38;;;7.88;;
75218;SDS011;63801;49.414;19.474;2023-09-08T09:29:13;10.83;;;7.67;;
75218;SDS011;63801;49.414;19.474;2023-09-08T09:31:13;13.45;;;8.25;;
75218;SDS011;63801;49.414;19.474;2023-09-08T09:33:14;10.95;;;7.93;;
75218;SDS011;63801;49.414;19.474;2023-09-08T09:35:15;13.02;;;8.10;;
75218;SDS011;63801;49.414;19.474;2023-09-08T09:37:17;11.77;;;8.23;;
75218;SDS011;63801;49.414;19.474;2023-09-08T09:39:21;16.07;;;8.27;;
75218;SDS011;63801;49.414;19.474;2023-09-08T09:41:24;12.95;;;7.80;;
75218;SDS011;63801;49.414;19.474;2023-09-08T09:43:24;12.73;;;8.07;;
75218;SDS011;63801;49.414;19.474;2023-09-08T09:45:28;12.32;;;7.93;;
75218;SDS011;63801;49.414;19.474;2023-09-08T09:47:28;11.30;;;7.88;;
75218;SDS011;63801;49.414;19.474;2023-09-08T09:49:29;11.43;;;7.10;;
75218;SDS011;63801;49.414;19.474;2023-09-08T09:51:31;10.05;;;6.57;;
75218;SDS011;63801;49.414;19.474;2023-09-08T09:53:32;10.63;;;7.30;;
75218;SDS011;63801;49.414;19.474;2023-09-08T09:55:33;12.10;;;7.10;;
75218;SDS011;63801;49.414;19.474;2023-09-08T09:57:33;9.50;;;7.30;;
75218;SDS011;63801;49.414;19.474;2023-09-08T09:59:35;11.73;;;6.90;;
75218;SDS011;63801;49.414;19.474;2023-09-08T10:01:36;13.05;;;7.55;;
75218;SDS011;63801;49.414;19.474;2023-09-08T10:03:40;12.27;;;7.30;;
75218;SDS011;63801;49.414;19.474;2023-09-08T10:05:40;10.32;;;7.20;;
75218;SDS011;63801;49.414;19.474;2023-09-08T10:07:41;11.20;;;6.97;;
75218;SDS011;63801;49.414;19.474;2023-09-08T10:09:43;9.18;;;6.78;;
75218;SDS011;63801;49.414;19.474;2023-09-08T10:11:49;10.38;;;6.88;;
75218;SDS011;63801;49.414;19.474;2023-09-08T10:13:51;12.20;;;7.18;;
75218;SDS011;63801;49.414;19.474;2023-09-08T10:15:58;9.48;;;6.10;;
75218;SDS011;63801;49.414;19.474;2023-09-08T10:18:03;9.02;;;6.60;;
75218;SDS011;63801;49.414;19.474;2023-09-08T10:20:04;8.80;;;5.93;;
75218;SDS011;63801;49.414;19.474;2023-09-08T10:22:11;11.07;;;6.72;;
75218;SDS011;63801;49.414;19.474;2023-09-08T10:26:32;7.25;;;5.18;;
75218;SDS011;63801;49.414;19.474;2023-09-08T10:28:34;15.43;;;5.90;;
75218;SDS011;63801;49.414;19.474;2023-09-08T10:32:37;10.80;;;5.38;;
75218;SDS011;63801;49.414;19.474;2023-09-08T10:34:41;9.27;;;5.97;;
75218;SDS011;63801;49.414;19.474;2023-09-08T10:36:43;7.15;;;4.63;;
75218;SDS011;63801;49.414;19.474;2023-09-08T10:38:43;8.00;;;4.70;;
75218;SDS011;63801;49.414;19.474;2023-09-08T10:40:47;9.23;;;5.63;;
75218;SDS011;63801;49.414;19.474;2023-09-08T10:42:48;8.10;;;5.30;;
75218;SDS011;63801;49.414;19.474;2023-09-08T10:46:49;8.77;;;5.85;;
75218;SDS011;63801;49.414;19.474;2023-09-08T10:48:50;7.25;;;5.30;;
75218;SDS011;63801;49.414;19.474;2023-09-08T10:50:54;8.48;;;5.32;;
75218;SDS011;63801;49.414;19.474;2023-09-08T10:53:04;7.13;;;5.30;;
75218;SDS011;63801;49.414;19.474;2023-09-08T10:55:12;7.78;;;5.20;;
75218;SDS011;63801;49.414;19.474;2023-09-08T10:57:15;8.65;;;5.22;;
75218;SDS011;63801;49.414;19.474;2023-09-08T10:59:17;6.80;;;5.18;;
75218;SDS011;63801;49.414;19.474;2023-09-08T11:01:18;7.30;;;4.72;;
75218;SDS011;63801;49.414;19.474;2023-09-08T11:05:38;10.95;;;6.47;;
75218;SDS011;63801;49.414;19.474;2023-09-08T11:07:39;9.10;;;5.38;;
75218;SDS011;63801;49.414;19.474;2023-09-08T11:09:40;11.07;;;6.82;;
75218;SDS011;63801;49.414;19.474;2023-09-08T11:11:40;8.65;;;6.15;;
75218;SDS011;63801;49.414;19.474;2023-09-08T11:13:41;9.45;;;5.15;;
75218;SDS011;63801;49.414;19.474;2023-09-08T11:15:45;13.57;;;5.72;;
75218;SDS011;63801;49.414;19.474;2023-09-08T11:17:46;7.97;;;4.85;;
75218;SDS011;63801;49.414;19.474;2023-09-08T11:19:50;10.38;;;5.20;;
75218;SDS011;63801;49.414;19.474;2023-09-08T11:21:51;15.35;;;8.90;;
75218;SDS011;63801;49.414;19.474;2023-09-08T11:23:51;12.50;;;7.35;;
75218;SDS011;63801;49.414;19.474;2023-09-08T11:25:52;6.85;;;4.40;;
75218;SDS011;63801;49.414;19.474;2023-09-08T11:27:53;8.65;;;4.50;;
75218;SDS011;63801;49.414;19.474;2023-09-08T11:29:54;9.13;;;5.82;;
75218;SDS011;63801;49.414;19.474;2023-09-08T11:31:55;10.00;;;5.32;;
75218;SDS011;63801;49.414;19.474;2023-09-08T11:33:56;6.72;;;4.43;;
75218;SDS011;63801;49.414;19.474;2023-09-08T11:35:56;11.85;;;6.63;;
75218;SDS011;63801;49.414;19.474;2023-09-08T11:37:58;8.15;;;4.95;;
75218;SDS011;63801;49.414;19.474;2023-09-08T11:40:00;10.20;;;4.38;;
75218;SDS011;63801;49.414;19.474;2023-09-08T11:42:00;8.90;;;5.22;;
75218;SDS011;63801;49.414;19.474;2023-09-08T11:44:01;6.80;;;5.00;;
75218;SDS011;63801;49.414;19.474;2023-09-08T11:46:01;8.38;;;4.82;;
75218;SDS011;63801;49.414;19.474;2023-09-08T11:48:02;11.32;;;5.45;;
75218;SDS011;63801;49.414;19.474;2023-09-08T11:50:04;8.00;;;4.93;;
75218;SDS011;63801;49.414;19.474;2023-09-08T11:52:05;7.82;;;4.22;;
75218;SDS011;63801;49.414;19.474;2023-09-08T11:54:06;6.45;;;4.40;;
75218;SDS011;63801;49.414;19.474;2023-09-08T11:56:07;8.55;;;5.28;;